createdAt,value
2018-09-10T00:02:02.565Z,10.30
2018-09-10T00:04:32.581Z,10.90
2018-09-10T00:07:02.414Z,9.20
2018-09-10T00:09:32.812Z,9.80
2018-09-10T00:12:02.720Z,10.50
2018-09-10T00:14:32.499Z,11.40
2018-09-10T00:17:02.385Z,11.03
2018-09-10T00:19:32.285Z,10.67
2018-09-10T00:22:02.234Z,10.03
2018-09-10T00:24:32.145Z,9.70
2018-09-10T00:27:01.970Z,10.50
2018-09-10T00:29:31.760Z,10.50
2018-09-10T00:32:01.592Z,10.73
2018-09-10T00:34:32.387Z,10.30
2018-09-10T00:37:02.263Z,10.50
2018-09-10T00:39:32.449Z,10.67
2018-09-10T00:42:02.467Z,10.20
2018-09-10T00:44:33.264Z,10.30
2018-09-10T00:47:03.047Z,10.20
2018-09-10T00:49:32.988Z,10.30
2018-09-10T00:52:02.932Z,11.33
2018-09-10T00:54:32.847Z,10.00
2018-09-10T00:57:02.637Z,9.17
2018-09-10T00:59:32.252Z,11.30
2018-09-10T01:02:01.817Z,11.90
2018-09-10T01:04:31.327Z,11.30
2018-09-10T01:07:00.908Z,9.90
2018-09-10T01:09:30.387Z,9.77
2018-09-10T01:11:59.892Z,9.90
2018-09-10T01:14:30.022Z,10.57
2018-09-10T01:17:00.398Z,9.93
2018-09-10T01:19:30.311Z,11.07
2018-09-10T01:22:01.028Z,10.33
2018-09-10T01:24:32.005Z,10.30
2018-09-10T01:27:01.850Z,10.47
2018-09-10T01:29:31.724Z,10.87
2018-09-10T01:32:01.414Z,11.37
2018-09-10T01:34:36.190Z,9.83
2018-09-10T01:37:05.999Z,9.63
2018-09-10T01:39:37.096Z,9.47
2018-09-10T01:42:07.101Z,9.10
2018-09-10T01:44:37.159Z,10.07
2018-09-10T01:47:06.950Z,9.47
2018-09-10T01:49:37.289Z,9.80
2018-09-10T01:52:07.116Z,8.13
2018-09-10T01:54:36.820Z,9.33
2018-09-10T01:57:06.833Z,9.57
2018-09-10T01:59:37.773Z,9.40
2018-09-10T02:02:07.684Z,9.87
2018-09-10T02:04:37.929Z,9.27
2018-09-10T02:07:08.100Z,9.73
2018-09-10T02:09:38.205Z,9.57
2018-09-10T02:12:12.442Z,9.43
2018-09-10T02:14:42.563Z,8.70
2018-09-10T02:17:12.739Z,9.93
2018-09-10T02:19:42.868Z,9.10
2018-09-10T02:22:14.043Z,9.23
2018-09-10T02:24:44.078Z,9.93
2018-09-10T02:27:15.052Z,10.07
2018-09-10T02:29:46.069Z,9.23
2018-09-10T02:32:16.108Z,9.67
2018-09-10T02:34:46.276Z,10.40
2018-09-10T02:37:16.349Z,9.07
2018-09-10T02:39:50.227Z,9.23
2018-09-10T02:42:21.117Z,9.03
2018-09-10T02:44:51.288Z,9.60
2018-09-10T02:47:21.402Z,9.87
2018-09-10T02:49:52.767Z,9.50
2018-09-10T02:52:22.773Z,9.87
2018-09-10T02:54:53.071Z,10.00
2018-09-10T02:57:23.778Z,9.30
2018-09-10T02:59:54.947Z,9.23
2018-09-10T03:02:25.313Z,9.93
2018-09-10T03:04:55.460Z,9.33
2018-09-10T03:07:25.661Z,9.87
2018-09-10T03:09:55.737Z,9.40
2018-09-10T03:12:25.552Z,9.07
2018-09-10T03:14:55.776Z,10.47
2018-09-10T03:17:26.927Z,10.27
2018-09-10T03:19:57.017Z,9.33
2018-09-10T03:22:27.059Z,9.90
2018-09-10T03:24:57.030Z,9.00
2018-09-10T03:27:27.491Z,9.70
2018-09-10T03:29:58.596Z,9.90
2018-09-10T03:32:29.029Z,9.30
2018-09-10T03:34:59.749Z,9.37
2018-09-10T03:37:29.839Z,9.80
2018-09-10T03:39:59.735Z,9.37
2018-09-10T03:42:29.609Z,9.57
2018-09-10T03:45:00.049Z,10.20
2018-09-10T03:47:30.265Z,10.50
2018-09-10T03:50:00.775Z,10.17
2018-09-10T03:52:30.774Z,11.03
2018-09-10T03:55:00.910Z,10.07
2018-09-10T03:57:31.785Z,9.70
2018-09-10T04:00:01.973Z,10.30
2018-09-10T04:02:33.041Z,11.10
2018-09-10T04:05:03.089Z,9.43
2018-09-10T04:07:33.327Z,10.30
2018-09-10T04:10:03.458Z,10.93
2018-09-10T04:12:35.137Z,10.77
2018-09-10T04:15:05.573Z,10.00
2018-09-10T04:17:35.228Z,9.07
2018-09-10T04:20:09.603Z,10.43
2018-09-10T04:22:42.236Z,10.90
2018-09-10T04:25:12.636Z,9.90
2018-09-10T04:27:42.374Z,10.83
2018-09-10T04:30:15.548Z,10.33
2018-09-10T04:32:45.651Z,10.37
2018-09-10T04:35:15.665Z,9.90
2018-09-10T04:37:45.628Z,9.43
2018-09-10T04:40:15.316Z,9.30
2018-09-10T04:42:45.003Z,9.40
2018-09-10T04:45:15.631Z,9.73
2018-09-10T04:47:46.693Z,9.23
2018-09-10T04:50:17.545Z,8.43
2018-09-10T04:52:47.282Z,9.27
2018-09-10T04:55:17.356Z,8.70
2018-09-10T04:57:47.296Z,9.90
2018-09-10T05:00:17.002Z,8.00
2018-09-10T05:02:46.645Z,9.47
2018-09-10T05:05:16.379Z,8.43
2018-09-10T05:07:47.286Z,9.03
2018-09-10T05:10:17.179Z,9.57
2018-09-10T05:12:46.964Z,9.50
2018-09-10T05:15:17.889Z,9.43
2018-09-10T05:17:49.380Z,8.90
2018-09-10T05:20:19.251Z,9.87
2018-09-10T05:22:48.949Z,10.17
2018-09-10T05:25:18.940Z,9.00
2018-09-10T05:27:49.135Z,8.97
2018-09-10T05:30:20.284Z,9.00
2018-09-10T05:32:50.608Z,8.87
2018-09-10T05:35:20.730Z,8.60
2018-09-10T05:37:50.949Z,8.90
2018-09-10T05:40:21.047Z,8.80
2018-09-10T05:42:51.027Z,8.83
2018-09-10T05:45:21.170Z,8.97
2018-09-10T05:47:51.938Z,9.53
2018-09-10T05:50:21.998Z,8.67
2018-09-10T05:52:51.757Z,9.67
2018-09-10T05:55:22.360Z,9.17
2018-09-10T05:57:52.946Z,8.90
2018-09-10T06:00:25.890Z,9.00
2018-09-10T06:02:56.099Z,9.00
2018-09-10T06:05:25.901Z,9.30
2018-09-10T06:07:55.562Z,9.60
2018-09-10T06:10:25.655Z,9.20
2018-09-10T06:12:55.295Z,8.67
2018-09-10T06:15:25.152Z,9.57
2018-09-10T06:17:54.983Z,8.80
2018-09-10T06:20:26.703Z,9.17
2018-09-10T06:22:56.604Z,8.80
2018-09-10T06:25:28.717Z,8.93
2018-09-10T06:27:58.471Z,8.67
2018-09-10T06:30:28.161Z,8.33
2018-09-10T06:32:57.990Z,9.47
2018-09-10T06:35:27.812Z,9.87
2018-09-10T06:37:57.696Z,8.63
2018-09-10T06:40:27.362Z,10.87
2018-09-10T06:42:57.359Z,10.80
2018-09-10T06:45:27.205Z,11.40
2018-09-10T06:59:28.144Z,9.50
2018-09-10T07:01:57.800Z,9.10
2018-09-10T07:04:27.494Z,9.40
2018-09-10T07:06:57.235Z,8.87
2018-09-10T07:09:27.132Z,10.00
2018-09-10T07:11:56.937Z,9.43
2018-09-10T07:14:26.807Z,9.60
2018-09-10T07:16:57.279Z,8.60
2018-09-10T07:19:27.009Z,9.07
2018-09-10T07:21:56.887Z,9.50
2018-09-10T07:24:26.595Z,8.63
2018-09-10T07:26:56.409Z,8.63
2018-09-10T07:29:26.385Z,8.70
2018-09-10T07:31:56.899Z,8.57
2018-09-10T07:34:27.229Z,9.37
2018-09-10T07:36:57.744Z,8.10
2018-09-10T07:39:28.011Z,9.50
2018-09-10T07:41:58.627Z,8.83
2018-09-10T07:44:28.872Z,8.47
2018-09-10T07:47:00.263Z,9.23
2018-09-10T07:49:31.102Z,9.13
2018-09-10T07:52:01.563Z,9.50
2018-09-10T07:54:31.973Z,8.20
2018-09-10T07:57:02.228Z,8.83
2018-09-10T07:59:34.563Z,8.63
2018-09-10T08:02:04.858Z,8.57
2018-09-10T08:04:34.932Z,8.30
2018-09-10T08:07:05.305Z,7.87
2018-09-10T08:09:37.001Z,8.40
2018-09-10T08:12:07.450Z,9.00
2018-09-10T08:14:38.627Z,8.20
2018-09-10T08:17:08.777Z,8.40
2018-09-10T08:19:39.850Z,7.93
2018-09-10T08:22:09.731Z,8.50
2018-09-10T08:24:39.740Z,8.97
2018-09-10T08:27:09.745Z,8.27
2018-09-10T08:29:39.825Z,8.60
2018-09-10T08:32:10.038Z,8.77
2018-09-10T08:34:40.487Z,8.73
2018-09-10T08:37:11.600Z,8.97
2018-09-10T08:39:42.050Z,8.90
2018-09-10T08:42:12.588Z,8.33
2018-09-10T08:44:43.489Z,8.07
2018-09-10T08:47:13.845Z,8.40
2018-09-10T08:49:43.975Z,8.00
2018-09-10T08:52:15.460Z,8.80
2018-09-10T08:54:46.015Z,8.20
2018-09-10T08:57:16.265Z,7.97
2018-09-10T08:59:46.784Z,8.77
2018-09-10T09:02:18.053Z,8.63
2018-09-10T09:04:48.433Z,8.63
2018-09-10T09:07:22.798Z,9.00
2018-09-10T09:09:53.779Z,8.23
2018-09-10T09:12:25.499Z,7.90
2018-09-10T09:14:55.192Z,8.50
2018-09-10T09:17:25.084Z,7.70
2018-09-10T09:19:54.967Z,7.40
2018-09-10T09:22:25.328Z,8.40
2018-09-10T09:24:56.475Z,8.07
2018-09-10T09:27:26.943Z,8.57
2018-09-10T09:29:57.039Z,8.07
2018-09-10T09:32:28.306Z,7.97
2018-09-10T09:34:59.491Z,8.13
2018-09-10T09:37:35.235Z,8.63
2018-09-10T09:40:10.308Z,9.07
2018-09-10T09:42:45.842Z,8.80
2018-09-10T09:45:20.988Z,9.37
2018-09-10T09:47:52.192Z,8.57
2018-09-10T09:50:23.116Z,8.23
2018-09-10T09:52:53.360Z,8.83
2018-09-10T09:55:24.060Z,8.60
2018-09-10T09:57:54.824Z,8.80
2018-09-10T10:00:30.152Z,8.43
2018-09-10T10:03:04.908Z,8.63
2018-09-10T10:05:35.879Z,8.70
2018-09-10T10:08:06.050Z,8.40
2018-09-10T10:10:36.723Z,8.13
2018-09-10T10:13:07.035Z,8.47
2018-09-10T10:15:37.066Z,9.30
2018-09-10T10:18:08.540Z,8.27
2018-09-10T10:20:38.411Z,9.10
2018-09-10T10:23:08.523Z,8.43
2018-09-10T10:25:38.782Z,8.57
2018-09-10T10:28:09.153Z,8.13
2018-09-10T10:30:40.386Z,7.70
2018-09-10T10:33:11.749Z,8.80
2018-09-10T10:35:42.019Z,9.20
2018-09-10T10:38:12.431Z,8.50
2018-09-10T10:40:42.798Z,8.90
2018-09-10T10:43:13.834Z,8.40
2018-09-10T10:45:44.048Z,8.40
2018-09-10T10:48:15.151Z,7.93
2018-09-10T10:50:47.240Z,8.53
2018-09-10T10:53:18.207Z,9.00
2018-09-10T10:55:48.927Z,9.30
2018-09-10T10:58:19.672Z,8.73
2018-09-10T11:00:49.932Z,9.00
2018-09-10T11:03:20.314Z,9.30
2018-09-10T11:05:50.566Z,9.13
2018-09-10T11:08:21.786Z,9.07
2018-09-10T11:10:54.031Z,8.93
2018-09-10T11:13:24.421Z,8.37
2018-09-10T11:15:54.632Z,9.13
2018-09-10T11:18:25.052Z,8.53
2018-09-10T11:20:56.537Z,9.37
2018-09-10T11:23:28.369Z,8.80
2018-09-10T11:25:58.486Z,9.23
2018-09-10T11:28:29.873Z,9.10
2018-09-10T11:31:00.053Z,8.47
2018-09-10T11:33:30.352Z,9.43
2018-09-10T11:36:02.315Z,9.33
2018-09-10T11:38:32.511Z,8.60
2018-09-10T11:41:03.601Z,9.87
2018-09-10T11:43:34.700Z,9.27
2018-09-10T11:46:04.762Z,9.43
2018-09-10T11:48:36.171Z,9.07
2018-09-10T11:51:06.661Z,9.00
2018-09-10T11:53:37.702Z,9.23
2018-09-10T11:56:07.635Z,9.20
2018-09-10T11:58:37.690Z,8.83
2018-09-10T12:01:10.316Z,8.70
2018-09-10T12:03:40.500Z,8.40
2018-09-10T12:06:10.671Z,8.20
2018-09-10T12:08:41.058Z,9.30
2018-09-10T12:11:11.308Z,8.10
2018-09-10T12:13:42.595Z,8.27
2018-09-10T12:16:12.619Z,8.93
2018-09-10T12:18:42.739Z,7.63
2018-09-10T12:21:12.775Z,8.60
2018-09-10T12:23:43.042Z,9.00
2018-09-10T12:26:13.283Z,9.33
2018-09-10T12:28:43.493Z,9.80
2018-09-10T12:31:14.877Z,9.70
2018-09-10T12:33:45.776Z,9.53
2018-09-10T12:36:15.772Z,8.73
2018-09-10T12:38:46.596Z,9.23
2018-09-10T12:41:17.127Z,9.50
2018-09-10T12:43:47.344Z,9.33
2018-09-10T12:46:17.986Z,9.73
2018-09-10T12:48:50.226Z,8.70
2018-09-10T12:51:20.216Z,9.33
2018-09-10T12:53:50.205Z,9.13
2018-09-10T12:56:20.796Z,9.90
2018-09-10T12:58:50.833Z,8.33
2018-09-10T13:01:23.775Z,8.93
2018-09-10T13:03:53.880Z,8.50
2018-09-10T13:06:23.986Z,8.53
2018-09-10T13:08:54.447Z,8.70
2018-09-10T13:11:24.579Z,10.20
2018-09-10T13:13:56.352Z,8.83
2018-09-10T13:16:26.422Z,9.87
2018-09-10T13:18:56.448Z,10.20
2018-09-10T13:21:26.486Z,8.67
2018-09-10T13:23:56.517Z,9.50
2018-09-10T13:26:28.145Z,9.27
2018-09-10T13:28:58.144Z,8.50
2018-09-10T13:31:28.064Z,10.10
2018-09-10T13:33:59.449Z,8.90
2018-09-10T13:36:29.745Z,9.60
2018-09-10T13:39:00.034Z,9.37
2018-09-10T13:41:31.103Z,9.47
2018-09-10T13:44:01.289Z,9.60
2018-09-10T13:46:32.858Z,9.30
2018-09-10T13:49:03.695Z,8.40
2018-09-10T13:51:34.094Z,9.33
2018-09-10T13:54:04.395Z,9.23
2018-09-10T13:56:38.695Z,8.87
2018-09-10T13:59:08.523Z,8.97
2018-09-10T14:01:39.777Z,9.17
2018-09-10T14:04:10.998Z,8.77
2018-09-10T14:06:43.712Z,7.67
2018-09-10T14:09:18.138Z,8.23
2018-09-10T14:11:48.997Z,9.63
2018-09-10T14:14:20.082Z,9.67
2018-09-10T14:16:50.691Z,8.70
2018-09-10T14:19:20.859Z,8.43
2018-09-10T14:21:51.158Z,8.20
2018-09-10T14:24:21.957Z,8.20
2018-09-10T14:26:53.219Z,7.93
2018-09-10T14:29:24.774Z,8.90
2018-09-10T14:31:54.992Z,8.40
2018-09-10T14:34:26.497Z,8.63
2018-09-10T14:36:57.764Z,8.33
2018-09-10T14:39:28.119Z,9.40
2018-09-10T14:41:58.188Z,11.70
2018-09-10T14:44:29.110Z,9.70
2018-09-10T14:47:00.442Z,10.93
2018-09-10T14:49:30.685Z,9.53
2018-09-10T14:52:00.764Z,8.60
2018-09-10T14:54:31.244Z,8.80
2018-09-10T14:57:01.371Z,9.27
2018-09-10T14:59:33.232Z,9.30
2018-09-10T15:02:03.318Z,8.50
2018-09-10T15:04:33.939Z,9.50
2018-09-10T15:07:04.703Z,9.40
2018-09-10T15:09:34.749Z,8.83
2018-09-10T15:12:04.911Z,9.30
2018-09-10T15:14:35.037Z,11.47
2018-09-10T15:17:05.524Z,10.00
2018-09-10T15:19:36.019Z,10.47
2018-09-10T15:22:05.996Z,10.37
2018-09-10T15:24:35.956Z,9.80
2018-09-10T15:27:05.841Z,9.60
2018-09-10T15:29:36.062Z,9.77
2018-09-10T15:32:12.125Z,10.57
2018-09-10T15:34:42.350Z,9.90
2018-09-10T15:37:12.569Z,9.67
2018-09-10T15:39:45.159Z,9.80
2018-09-10T15:42:16.293Z,9.67
2018-09-10T15:44:47.476Z,9.43
2018-09-10T15:47:17.537Z,9.63
2018-09-10T15:49:47.700Z,10.20
2018-09-10T15:52:18.490Z,10.50
2018-09-10T15:54:49.148Z,10.27
2018-09-10T15:57:19.218Z,11.47
2018-09-10T15:59:49.970Z,10.63
2018-09-10T16:02:20.141Z,11.07
2018-09-10T16:04:50.061Z,11.00
2018-09-10T16:07:20.289Z,12.70
2018-09-10T16:09:50.540Z,11.40
2018-09-10T16:12:21.043Z,11.80
2018-09-10T16:14:53.442Z,11.13
2018-09-10T16:17:23.519Z,12.50
2018-09-10T16:19:55.278Z,11.60
2018-09-10T16:22:25.984Z,13.17
2018-09-10T16:24:56.044Z,13.60
2018-09-10T16:27:26.195Z,12.90
2018-09-10T16:29:58.240Z,12.23
2018-09-10T16:32:28.189Z,13.03
2018-09-10T16:34:58.201Z,12.13
2018-09-10T16:37:29.273Z,12.03
2018-09-10T16:39:59.796Z,13.23
2018-09-10T16:42:30.773Z,11.83
2018-09-10T16:45:07.022Z,12.63
2018-09-10T16:47:36.858Z,13.03
2018-09-10T16:50:07.452Z,12.60
2018-09-10T16:52:37.347Z,11.50
2018-09-10T16:55:07.564Z,11.50
2018-09-10T16:57:39.536Z,10.57
2018-09-10T17:00:10.149Z,11.70
2018-09-10T17:02:42.445Z,11.80
2018-09-10T17:05:13.617Z,12.00
2018-09-10T17:07:44.331Z,12.53
2018-09-10T17:10:14.561Z,11.20
2018-09-10T17:12:44.843Z,11.50
2018-09-10T17:15:16.379Z,11.50
2018-09-10T17:17:46.733Z,11.70
2018-09-10T17:20:16.879Z,12.10
2018-09-10T17:22:47.325Z,11.90
2018-09-10T17:25:18.153Z,10.60
2018-09-10T17:27:49.607Z,12.23
2018-09-10T17:30:20.226Z,13.27
2018-09-10T17:32:52.245Z,12.80
2018-09-10T17:35:23.074Z,12.13
2018-09-10T17:37:54.999Z,12.90
2018-09-10T17:40:25.826Z,11.37
2018-09-10T17:42:56.015Z,12.60
2018-09-10T17:45:27.885Z,11.83
2018-09-10T17:47:57.913Z,14.47
2018-09-10T17:50:28.047Z,12.53
2018-09-10T17:52:58.362Z,13.50
2018-09-10T17:55:29.111Z,14.90
2018-09-10T17:57:59.664Z,13.20
2018-09-10T18:00:29.801Z,12.90
2018-09-10T18:03:00.200Z,13.17
2018-09-10T18:05:30.877Z,14.10
2018-09-10T18:08:02.309Z,13.60
2018-09-10T18:10:33.651Z,14.13
2018-09-10T18:13:06.141Z,14.93
2018-09-10T18:15:38.269Z,13.57
2018-09-10T18:18:08.224Z,13.53
2018-09-10T18:20:38.453Z,13.27
2018-09-10T18:23:08.740Z,13.67
2018-09-10T18:25:38.856Z,13.03
2018-09-10T18:28:09.284Z,13.57
2018-09-10T18:30:39.321Z,13.83
2018-09-10T18:33:09.817Z,15.63
2018-09-10T18:35:41.727Z,13.40
2018-09-10T18:38:12.265Z,13.07
2018-09-10T18:40:42.755Z,10.80
2018-09-10T18:44:43.672Z,11.33
2018-09-10T18:47:16.185Z,11.30
2018-09-10T18:49:46.985Z,10.83
2018-09-10T18:52:18.176Z,11.73
2018-09-10T18:54:49.026Z,10.90
2018-09-10T18:57:19.710Z,11.60
2018-09-10T18:59:50.645Z,10.90
2018-09-10T19:02:20.557Z,11.50
2018-09-10T19:04:54.784Z,10.17
2018-09-10T19:07:25.063Z,11.37
2018-09-10T19:09:55.432Z,11.13
2018-09-10T19:12:33.485Z,11.10
2018-09-10T19:15:03.298Z,11.43
2018-09-10T19:17:33.129Z,11.00
2018-09-10T19:20:08.429Z,11.37
2018-09-10T19:22:39.553Z,12.37
2018-09-10T19:25:09.486Z,10.33
2018-09-10T19:27:40.386Z,11.43
2018-09-10T19:30:11.519Z,10.77
2018-09-10T19:32:42.681Z,10.13
2018-09-10T19:35:13.403Z,10.10
2018-09-10T19:37:43.468Z,10.77
2018-09-10T19:40:14.903Z,10.30
2018-09-10T19:42:44.917Z,11.10
2018-09-10T19:45:14.836Z,10.37
2018-09-10T19:47:45.198Z,10.77
2018-09-10T19:50:16.282Z,10.60
2018-09-10T19:52:48.046Z,11.20
2018-09-10T19:55:20.333Z,10.87
2018-09-10T19:57:53.084Z,10.17
2018-09-10T20:00:24.050Z,10.30
2018-09-10T20:02:54.375Z,10.77
2018-09-10T20:05:25.596Z,10.50
2018-09-10T20:07:57.399Z,10.90
2018-09-10T20:10:29.587Z,9.93
2018-09-10T20:12:59.930Z,10.40
2018-09-10T20:15:29.946Z,11.03
2018-09-10T20:17:59.601Z,9.70
2018-09-10T20:20:30.217Z,9.33
2018-09-10T20:23:00.788Z,10.53
2018-09-10T20:25:32.094Z,9.70
2018-09-10T20:28:02.875Z,10.73
2018-09-10T20:30:34.096Z,10.80
2018-09-10T20:33:04.803Z,11.43
2018-09-10T20:35:35.850Z,10.60
2018-09-10T20:38:06.521Z,10.87
2018-09-10T20:40:36.779Z,10.60
2018-09-10T20:43:06.888Z,10.57
2018-09-10T20:45:37.365Z,10.37
2018-09-10T20:48:07.686Z,11.43
2018-09-10T20:50:38.085Z,9.93
2018-09-10T20:53:08.980Z,10.90
2018-09-10T20:55:39.741Z,10.57
2018-09-10T20:58:10.979Z,10.83
2018-09-10T21:00:41.191Z,10.43
2018-09-10T21:03:11.701Z,10.83
2018-09-10T21:05:42.595Z,11.10
2018-09-10T21:08:13.621Z,10.50
2018-09-10T21:10:43.933Z,10.80
2018-09-10T21:13:13.752Z,10.20
2018-09-10T21:15:43.729Z,10.00
2018-09-10T21:18:13.410Z,10.60
2018-09-10T21:20:43.247Z,11.70
2018-09-10T21:23:14.528Z,10.67
2018-09-10T21:25:44.773Z,10.27
2018-09-10T21:28:15.517Z,10.10
2018-09-10T21:30:45.454Z,11.17
2018-09-10T21:33:15.607Z,10.80
2018-09-10T21:35:45.292Z,11.60
2018-09-10T21:38:14.968Z,11.53
2018-09-10T21:40:46.306Z,11.37
2018-09-10T21:43:18.287Z,12.00
2018-09-10T21:45:48.622Z,11.63
2018-09-10T21:48:18.471Z,12.50
2018-09-10T21:50:48.137Z,12.80
2018-09-10T21:53:18.311Z,12.00
2018-09-10T21:55:48.011Z,12.20
2018-09-10T21:58:17.923Z,13.10
2018-09-10T22:00:57.730Z,11.20
2018-09-10T22:03:28.458Z,12.83
2018-09-10T22:05:58.458Z,12.93
2018-09-10T22:08:28.237Z,12.90
2018-09-10T22:10:58.696Z,11.77
2018-09-10T22:13:28.645Z,12.63
2018-09-10T22:15:59.312Z,12.83
2018-09-10T22:18:29.100Z,12.63
2018-09-10T22:20:58.940Z,12.80
2018-09-10T22:23:28.756Z,12.00
2018-09-10T22:25:58.570Z,11.90
2018-09-10T22:28:28.331Z,12.07
2018-09-10T22:30:58.025Z,11.90
2018-09-10T22:33:27.976Z,12.10
2018-09-10T22:35:58.815Z,12.20
2018-09-10T22:38:29.678Z,12.47
2018-09-10T22:40:59.535Z,11.13
2018-09-10T22:43:29.273Z,11.63
2018-09-10T22:45:58.993Z,11.33
2018-09-10T22:48:28.830Z,11.20
2018-09-10T22:50:58.615Z,11.43
2018-09-10T22:53:28.460Z,11.57
2018-09-10T22:55:59.713Z,11.83
2018-09-10T22:58:29.480Z,11.87
2018-09-10T23:00:59.243Z,10.73
2018-09-10T23:03:29.058Z,10.73
2018-09-10T23:05:58.983Z,11.50
2018-09-10T23:08:28.814Z,9.80
2018-09-10T23:10:58.499Z,9.90
2018-09-10T23:13:28.493Z,10.40
2018-09-10T23:15:58.304Z,12.40
2018-09-10T23:18:28.183Z,10.13
2018-09-10T23:20:57.853Z,10.60
2018-09-10T23:23:27.764Z,10.83
2018-09-10T23:25:57.536Z,10.20
2018-09-10T23:28:27.803Z,10.20
2018-09-10T23:30:57.760Z,10.43
2018-09-10T23:33:27.466Z,10.00
2018-09-10T23:35:57.106Z,10.00
2018-09-10T23:38:27.003Z,10.97
2018-09-10T23:40:56.832Z,9.93
2018-09-10T23:43:26.525Z,10.10
2018-09-10T23:45:56.191Z,9.33
2018-09-10T23:48:26.041Z,10.53
2018-09-10T23:50:56.042Z,9.07
2018-09-10T23:53:26.285Z,9.00
2018-09-10T23:55:56.265Z,10.17
2018-09-10T23:58:25.950Z,10.03
